Fire Weather Observation
Issued by NWS Grand Junction, CO

Home | Current Version | Previous Version | Graphics & Text | Print | Product List | Glossary On
Versions: 1 2 3 4 5 6 7 8 9 10 11 12 13 14 15 16 17 18 19 20 21 22 23 24 25 26 27 28 29 30 31 32 33 34 35 36 37 38 39 40 41 42 43 44 45 46 47 48 49 50
000
SHUS65 KGJT 282022
FWOGJT

DAILY FIRE WEATHER OBSERVATION
NATIONAL WEATHER SERVICE GRAND JUNCTION CO
222 PM MDT MON JUL 28 2014

STATE OF THE WEATHER (W)               2
DRY BULB TEMPERATURE                   85   DEGREES FAHRENHEIT
RELATIVE HUMIDITY (RH)                 32   PERCENT
LIGHTNING ACTIVITY LEVEL
  (LAL - MIDNIGHT TO 2 PM)             2
WIND DIRECTION                         315  DEGREES (C IF CALM)
WIND SPEED                             8    MPH
MAX TEMP (2 PM - 2 PM)                 96   DEGREES FAHRENHEIT
MIN TEMP (2 PM - 2 PM)                 66   DEGREES FAHRENHEIT
MAX RH (2 PM - 2 PM)                   50   PERCENT
MIN RH (2 PM - 2 PM)                   17   PERCENT
PCPN DURATION                          0.5  HOURS
PCPN AMT (2 PM - 2 PM)                 T    INCHES
LAL (2 PM - 2 PM)                      2

$$

METAR KGJT 281953Z 30007KT 260V320 10SM FEW110 29/11 A3024 RMK
      AO2 SLP162 T02940111


USA.gov is the U.S. government's official web portal to all federal, state and local government web resources and services.